sensor_id;sensor_type;location;lat;lon;timestamp;P1;durP1;ratioP1;P2;durP2;ratioP2
417;SDS011;49;48.530;9.200;2024-01-06T00:02:03;15.90;;;9.70;;
417;SDS011;49;48.530;9.200;2024-01-06T00:04:30;20.90;;;9.13;;
417;SDS011;49;48.530;9.200;2024-01-06T00:06:58;20.67;;;10.63;;
417;SDS011;49;48.530;9.200;2024-01-06T00:09:25;20.80;;;8.63;;
417;SDS011;49;48.530;9.200;2024-01-06T00:11:51;14.97;;;9.30;;
417;SDS011;49;48.530;9.200;2024-01-06T00:14:18;14.40;;;8.80;;
417;SDS011;49;48.530;9.200;2024-01-06T00:16:46;16.57;;;9.57;;
417;SDS011;49;48.530;9.200;2024-01-06T00:19:13;21.87;;;10.00;;
417;SDS011;49;48.530;9.200;2024-01-06T00:21:42;19.10;;;9.83;;
417;SDS011;49;48.530;9.200;2024-01-06T00:24:09;19.47;;;9.80;;
417;SDS011;49;48.530;9.200;2024-01-06T00:26:36;16.13;;;9.90;;
417;SDS011;49;48.530;9.200;2024-01-06T00:29:03;17.70;;;9.73;;
417;SDS011;49;48.530;9.200;2024-01-06T00:31:32;18.70;;;10.07;;
417;SDS011;49;48.530;9.200;2024-01-06T00:34:01;22.90;;;9.90;;
417;SDS011;49;48.530;9.200;2024-01-06T00:36:28;14.80;;;8.50;;
417;SDS011;49;48.530;9.200;2024-01-06T00:38:56;15.80;;;9.03;;
417;SDS011;49;48.530;9.200;2024-01-06T00:41:22;16.07;;;8.80;;
417;SDS011;49;48.530;9.200;2024-01-06T00:43:49;16.27;;;10.13;;
417;SDS011;49;48.530;9.200;2024-01-06T00:46:16;17.10;;;8.90;;
417;SDS011;49;48.530;9.200;2024-01-06T00:48:43;19.07;;;9.33;;
417;SDS011;49;48.530;9.200;2024-01-06T00:51:12;13.57;;;8.73;;
417;SDS011;49;48.530;9.200;2024-01-06T00:53:39;17.67;;;10.50;;
417;SDS011;49;48.530;9.200;2024-01-06T00:56:06;17.90;;;9.40;;
417;SDS011;49;48.530;9.200;2024-01-06T00:58:33;18.23;;;9.93;;
417;SDS011;49;48.530;9.200;2024-01-06T01:00:59;18.57;;;9.00;;
417;SDS011;49;48.530;9.200;2024-01-06T01:03:26;20.70;;;9.10;;
417;SDS011;49;48.530;9.200;2024-01-06T01:05:53;21.83;;;10.30;;
417;SDS011;49;48.530;9.200;2024-01-06T01:08:21;21.73;;;10.30;;
417;SDS011;49;48.530;9.200;2024-01-06T01:10:48;20.13;;;9.07;;
417;SDS011;49;48.530;9.200;2024-01-06T01:13:15;19.03;;;9.50;;
417;SDS011;49;48.530;9.200;2024-01-06T01:15:42;20.37;;;8.20;;
417;SDS011;49;48.530;9.200;2024-01-06T01:18:09;20.40;;;9.07;;
417;SDS011;49;48.530;9.200;2024-01-06T01:20:36;19.70;;;10.40;;
417;SDS011;49;48.530;9.200;2024-01-06T01:23:06;19.53;;;9.67;;
417;SDS011;49;48.530;9.200;2024-01-06T01:25:35;17.90;;;10.20;;
417;SDS011;49;48.530;9.200;2024-01-06T01:28:02;22.53;;;10.30;;
417;SDS011;49;48.530;9.200;2024-01-06T01:30:29;18.47;;;10.83;;
417;SDS011;49;48.530;9.200;2024-01-06T01:32:57;19.53;;;11.73;;
417;SDS011;49;48.530;9.200;2024-01-06T01:35:24;18.20;;;10.80;;
417;SDS011;49;48.530;9.200;2024-01-06T01:37:51;19.80;;;11.83;;
417;SDS011;49;48.530;9.200;2024-01-06T01:40:18;18.73;;;11.47;;
417;SDS011;49;48.530;9.200;2024-01-06T01:42:46;21.43;;;10.10;;
417;SDS011;49;48.530;9.200;2024-01-06T01:45:13;22.00;;;10.90;;
417;SDS011;49;48.530;9.200;2024-01-06T01:47:40;24.30;;;10.93;;
417;SDS011;49;48.530;9.200;2024-01-06T01:50:08;20.73;;;11.07;;
417;SDS011;49;48.530;9.200;2024-01-06T01:52:38;17.63;;;10.17;;
417;SDS011;49;48.530;9.200;2024-01-06T01:55:07;15.03;;;9.50;;
417;SDS011;49;48.530;9.200;2024-01-06T01:57:37;22.60;;;11.13;;
417;SDS011;49;48.530;9.200;2024-01-06T02:00:07;26.43;;;15.03;;
417;SDS011;49;48.530;9.200;2024-01-06T02:02:34;19.97;;;12.10;;
417;SDS011;49;48.530;9.200;2024-01-06T02:05:01;18.20;;;11.20;;
417;SDS011;49;48.530;9.200;2024-01-06T02:07:28;16.57;;;10.93;;
417;SDS011;49;48.530;9.200;2024-01-06T02:09:56;19.00;;;9.73;;
417;SDS011;49;48.530;9.200;2024-01-06T02:12:23;17.73;;;10.53;;
417;SDS011;49;48.530;9.200;2024-01-06T02:14:50;21.90;;;10.73;;
417;SDS011;49;48.530;9.200;2024-01-06T02:17:18;15.43;;;10.20;;
417;SDS011;49;48.530;9.200;2024-01-06T02:19:45;19.00;;;10.10;;
417;SDS011;49;48.530;9.200;2024-01-06T02:22:14;20.93;;;10.90;;
417;SDS011;49;48.530;9.200;2024-01-06T02:24:41;15.33;;;10.67;;
417;SDS011;49;48.530;9.200;2024-01-06T02:27:08;22.63;;;12.73;;
417;SDS011;49;48.530;9.200;2024-01-06T02:29:35;21.60;;;11.20;;
417;SDS011;49;48.530;9.200;2024-01-06T02:32:02;23.33;;;11.83;;
417;SDS011;49;48.530;9.200;2024-01-06T02:34:29;21.93;;;11.30;;
417;SDS011;49;48.530;9.200;2024-01-06T02:36:57;23.73;;;11.60;;
417;SDS011;49;48.530;9.200;2024-01-06T02:39:26;18.77;;;11.43;;
417;SDS011;49;48.530;9.200;2024-01-06T02:41:52;20.50;;;12.30;;
417;SDS011;49;48.530;9.200;2024-01-06T02:44:19;22.33;;;11.23;;
417;SDS011;49;48.530;9.200;2024-01-06T02:46:46;15.53;;;10.20;;
417;SDS011;49;48.530;9.200;2024-01-06T02:49:13;20.90;;;11.10;;
417;SDS011;49;48.530;9.200;2024-01-06T02:51:40;22.23;;;10.53;;
417;SDS011;49;48.530;9.200;2024-01-06T02:54:07;18.10;;;11.10;;
417;SDS011;49;48.530;9.200;2024-01-06T02:56:35;20.43;;;11.17;;
417;SDS011;49;48.530;9.200;2024-01-06T02:59:03;23.73;;;11.50;;
417;SDS011;49;48.530;9.200;2024-01-06T03:01:31;20.53;;;11.10;;
417;SDS011;49;48.530;9.200;2024-01-06T03:03:59;21.23;;;11.87;;
417;SDS011;49;48.530;9.200;2024-01-06T03:06:26;20.93;;;11.27;;
417;SDS011;49;48.530;9.200;2024-01-06T03:08:54;23.30;;;11.60;;
417;SDS011;49;48.530;9.200;2024-01-06T03:11:21;21.73;;;11.20;;
417;SDS011;49;48.530;9.200;2024-01-06T03:13:49;21.00;;;11.63;;
417;SDS011;49;48.530;9.200;2024-01-06T03:16:16;13.93;;;9.70;;
417;SDS011;49;48.530;9.200;2024-01-06T03:18:43;18.10;;;9.87;;
417;SDS011;49;48.530;9.200;2024-01-06T03:21:17;24.80;;;10.20;;
417;SDS011;49;48.530;9.200;2024-01-06T03:23:45;17.47;;;9.87;;
417;SDS011;49;48.530;9.200;2024-01-06T03:26:13;22.40;;;11.10;;
417;SDS011;49;48.530;9.200;2024-01-06T03:28:40;17.20;;;8.67;;
417;SDS011;49;48.530;9.200;2024-01-06T03:31:09;18.87;;;9.67;;
417;SDS011;49;48.530;9.200;2024-01-06T03:33:36;17.67;;;9.00;;
417;SDS011;49;48.530;9.200;2024-01-06T03:36:04;15.33;;;8.77;;
417;SDS011;49;48.530;9.200;2024-01-06T03:38:34;15.33;;;10.20;;
417;SDS011;49;48.530;9.200;2024-01-06T03:41:02;17.20;;;10.10;;
417;SDS011;49;48.530;9.200;2024-01-06T03:43:29;15.97;;;9.73;;
417;SDS011;49;48.530;9.200;2024-01-06T03:45:56;15.13;;;9.53;;
417;SDS011;49;48.530;9.200;2024-01-06T03:48:26;14.17;;;9.10;;
417;SDS011;49;48.530;9.200;2024-01-06T03:50:53;13.97;;;8.47;;
417;SDS011;49;48.530;9.200;2024-01-06T03:53:20;16.87;;;8.07;;
417;SDS011;49;48.530;9.200;2024-01-06T03:55:52;15.93;;;8.00;;
417;SDS011;49;48.530;9.200;2024-01-06T03:58:19;16.57;;;8.10;;
417;SDS011;49;48.530;9.200;2024-01-06T04:00:46;13.30;;;8.83;;
417;SDS011;49;48.530;9.200;2024-01-06T04:03:13;19.47;;;10.00;;
417;SDS011;49;48.530;9.200;2024-01-06T04:05:41;16.13;;;9.40;;
417;SDS011;49;48.530;9.200;2024-01-06T04:08:10;25.00;;;8.90;;
417;SDS011;49;48.530;9.200;2024-01-06T04:10:37;20.53;;;8.50;;
417;SDS011;49;48.530;9.200;2024-01-06T04:13:04;17.30;;;8.87;;
417;SDS011;49;48.530;9.200;2024-01-06T04:15:32;17.87;;;9.03;;
417;SDS011;49;48.530;9.200;2024-01-06T04:18:01;16.30;;;10.10;;
417;SDS011;49;48.530;9.200;2024-01-06T04:20:31;20.40;;;9.77;;
417;SDS011;49;48.530;9.200;2024-01-06T04:23:00;17.03;;;8.53;;
417;SDS011;49;48.530;9.200;2024-01-06T04:25:30;15.00;;;8.40;;
417;SDS011;49;48.530;9.200;2024-01-06T04:27:57;11.53;;;8.20;;
417;SDS011;49;48.530;9.200;2024-01-06T04:30:24;19.33;;;9.40;;
417;SDS011;49;48.530;9.200;2024-01-06T04:32:51;18.27;;;10.20;;
417;SDS011;49;48.530;9.200;2024-01-06T04:35:22;14.50;;;9.23;;
417;SDS011;49;48.530;9.200;2024-01-06T04:37:49;16.90;;;8.80;;
417;SDS011;49;48.530;9.200;2024-01-06T04:40:18;16.00;;;8.00;;
417;SDS011;49;48.530;9.200;2024-01-06T04:42:44;15.70;;;8.73;;
417;SDS011;49;48.530;9.200;2024-01-06T04:45:11;18.73;;;10.83;;
417;SDS011;49;48.530;9.200;2024-01-06T04:47:38;28.30;;;9.33;;
417;SDS011;49;48.530;9.200;2024-01-06T04:50:05;15.87;;;7.97;;
417;SDS011;49;48.530;9.200;2024-01-06T04:52:33;20.47;;;9.20;;
417;SDS011;49;48.530;9.200;2024-01-06T04:55:00;13.10;;;8.43;;
417;SDS011;49;48.530;9.200;2024-01-06T04:57:30;13.97;;;8.67;;
417;SDS011;49;48.530;9.200;2024-01-06T04:59:57;18.73;;;9.30;;
417;SDS011;49;48.530;9.200;2024-01-06T05:02:24;15.73;;;9.20;;
417;SDS011;49;48.530;9.200;2024-01-06T05:04:51;14.70;;;8.27;;
417;SDS011;49;48.530;9.200;2024-01-06T05:07:18;20.13;;;8.30;;
417;SDS011;49;48.530;9.200;2024-01-06T05:09:45;15.73;;;8.53;;
417;SDS011;49;48.530;9.200;2024-01-06T05:12:12;17.37;;;7.93;;
417;SDS011;49;48.530;9.200;2024-01-06T05:14:41;13.93;;;8.30;;
417;SDS011;49;48.530;9.200;2024-01-06T05:17:07;20.27;;;9.00;;
417;SDS011;49;48.530;9.200;2024-01-06T05:19:35;13.63;;;8.80;;
417;SDS011;49;48.530;9.200;2024-01-06T05:22:02;12.80;;;7.80;;
417;SDS011;49;48.530;9.200;2024-01-06T05:24:29;20.60;;;9.33;;
417;SDS011;49;48.530;9.200;2024-01-06T05:26:56;21.43;;;9.27;;
417;SDS011;49;48.530;9.200;2024-01-06T05:29:23;20.37;;;8.80;;
417;SDS011;49;48.530;9.200;2024-01-06T05:31:52;11.77;;;7.43;;
417;SDS011;49;48.530;9.200;2024-01-06T05:34:19;22.43;;;8.60;;
417;SDS011;49;48.530;9.200;2024-01-06T05:36:46;13.40;;;8.60;;
417;SDS011;49;48.530;9.200;2024-01-06T05:39:13;12.03;;;7.00;;
417;SDS011;49;48.530;9.200;2024-01-06T05:41:40;15.50;;;6.97;;
417;SDS011;49;48.530;9.200;2024-01-06T05:44:10;14.40;;;6.43;;
417;SDS011;49;48.530;9.200;2024-01-06T05:46:36;11.27;;;6.80;;
417;SDS011;49;48.530;9.200;2024-01-06T05:49:05;12.40;;;7.23;;
417;SDS011;49;48.530;9.200;2024-01-06T05:51:33;12.53;;;7.17;;
417;SDS011;49;48.530;9.200;2024-01-06T05:54:00;10.47;;;6.17;;
417;SDS011;49;48.530;9.200;2024-01-06T05:56:27;11.43;;;7.00;;
417;SDS011;49;48.530;9.200;2024-01-06T05:58:55;9.53;;;5.70;;
417;SDS011;49;48.530;9.200;2024-01-06T06:01:24;13.03;;;7.13;;
417;SDS011;49;48.530;9.200;2024-01-06T06:03:51;11.90;;;8.50;;
417;SDS011;49;48.530;9.200;2024-01-06T06:06:19;13.63;;;6.10;;
417;SDS011;49;48.530;9.200;2024-01-06T06:08:46;28.13;;;8.23;;
417;SDS011;49;48.530;9.200;2024-01-06T06:11:13;10.03;;;5.73;;
417;SDS011;49;48.530;9.200;2024-01-06T06:13:41;9.33;;;5.80;;
417;SDS011;49;48.530;9.200;2024-01-06T06:16:08;12.33;;;6.07;;
417;SDS011;49;48.530;9.200;2024-01-06T06:18:37;10.03;;;5.40;;
417;SDS011;49;48.530;9.200;2024-01-06T06:21:04;10.83;;;5.70;;
417;SDS011;49;48.530;9.200;2024-01-06T06:23:34;15.63;;;5.70;;
417;SDS011;49;48.530;9.200;2024-01-06T06:26:04;8.13;;;5.00;;
417;SDS011;49;48.530;9.200;2024-01-06T06:28:32;11.60;;;5.57;;
417;SDS011;49;48.530;9.200;2024-01-06T06:31:02;13.60;;;5.93;;
417;SDS011;49;48.530;9.200;2024-01-06T06:33:31;15.23;;;5.80;;
417;SDS011;49;48.530;9.200;2024-01-06T06:35:58;30.53;;;6.20;;
417;SDS011;49;48.530;9.200;2024-01-06T06:38:26;13.30;;;5.30;;
417;SDS011;49;48.530;9.200;2024-01-06T06:40:57;11.63;;;5.20;;
417;SDS011;49;48.530;9.200;2024-01-06T06:43:25;10.93;;;5.97;;
417;SDS011;49;48.530;9.200;2024-01-06T06:45:54;13.70;;;6.00;;
417;SDS011;49;48.530;9.200;2024-01-06T06:48:21;9.67;;;5.77;;
417;SDS011;49;48.530;9.200;2024-01-06T06:50:48;12.50;;;5.27;;
417;SDS011;49;48.530;9.200;2024-01-06T06:53:15;14.43;;;5.37;;
417;SDS011;49;48.530;9.200;2024-01-06T06:55:43;10.33;;;4.73;;
417;SDS011;49;48.530;9.200;2024-01-06T06:58:11;11.40;;;5.73;;
417;SDS011;49;48.530;9.200;2024-01-06T07:00:38;10.53;;;5.33;;
417;SDS011;49;48.530;9.200;2024-01-06T07:03:05;9.77;;;6.03;;
417;SDS011;49;48.530;9.200;2024-01-06T07:05:33;16.50;;;6.07;;
417;SDS011;49;48.530;9.200;2024-01-06T07:08:00;14.70;;;6.80;;
417;SDS011;49;48.530;9.200;2024-01-06T07:10:27;16.93;;;8.40;;
417;SDS011;49;48.530;9.200;2024-01-06T07:12:54;20.83;;;8.57;;
417;SDS011;49;48.530;9.200;2024-01-06T07:15:23;15.13;;;7.47;;
417;SDS011;49;48.530;9.200;2024-01-06T07:17:49;21.80;;;7.23;;
417;SDS011;49;48.530;9.200;2024-01-06T07:20:16;8.10;;;5.40;;
417;SDS011;49;48.530;9.200;2024-01-06T07:22:44;11.47;;;5.70;;
417;SDS011;49;48.530;9.200;2024-01-06T07:25:11;11.70;;;5.87;;
417;SDS011;49;48.530;9.200;2024-01-06T07:27:38;9.53;;;5.70;;
417;SDS011;49;48.530;9.200;2024-01-06T07:30:06;12.20;;;6.07;;
417;SDS011;49;48.530;9.200;2024-01-06T07:32:35;16.43;;;5.60;;
417;SDS011;49;48.530;9.200;2024-01-06T07:35:02;12.57;;;5.90;;
417;SDS011;49;48.530;9.200;2024-01-06T07:37:30;10.87;;;5.10;;
417;SDS011;49;48.530;9.200;2024-01-06T07:39:57;10.50;;;5.27;;
417;SDS011;49;48.530;9.200;2024-01-06T07:42:24;14.77;;;5.60;;
417;SDS011;49;48.530;9.200;2024-01-06T07:44:51;20.40;;;5.60;;
417;SDS011;49;48.530;9.200;2024-01-06T07:47:18;19.47;;;6.60;;
417;SDS011;49;48.530;9.200;2024-01-06T07:49:46;11.03;;;5.00;;
417;SDS011;49;48.530;9.200;2024-01-06T07:52:13;10.17;;;6.13;;
417;SDS011;49;48.530;9.200;2024-01-06T07:54:40;10.50;;;5.30;;
417;SDS011;49;48.530;9.200;2024-01-06T07:57:07;13.23;;;6.10;;
417;SDS011;49;48.530;9.200;2024-01-06T07:59:36;13.70;;;5.40;;
417;SDS011;49;48.530;9.200;2024-01-06T08:02:03;15.03;;;5.67;;
417;SDS011;49;48.530;9.200;2024-01-06T08:04:30;10.80;;;5.30;;
417;SDS011;49;48.530;9.200;2024-01-06T08:06:58;11.20;;;5.07;;
417;SDS011;49;48.530;9.200;2024-01-06T08:09:25;11.97;;;5.87;;
417;SDS011;49;48.530;9.200;2024-01-06T08:11:52;15.07;;;5.67;;
417;SDS011;49;48.530;9.200;2024-01-06T08:14:19;17.50;;;6.07;;
417;SDS011;49;48.530;9.200;2024-01-06T08:16:46;12.83;;;5.47;;
417;SDS011;49;48.530;9.200;2024-01-06T08:19:13;16.00;;;7.37;;
417;SDS011;49;48.530;9.200;2024-01-06T08:21:39;13.27;;;5.87;;
417;SDS011;49;48.530;9.200;2024-01-06T08:24:08;10.90;;;6.20;;
417;SDS011;49;48.530;9.200;2024-01-06T08:26:34;15.17;;;6.00;;
417;SDS011;49;48.530;9.200;2024-01-06T08:29:01;10.90;;;5.33;;
417;SDS011;49;48.530;9.200;2024-01-06T08:31:28;22.77;;;5.97;;
417;SDS011;49;48.530;9.200;2024-01-06T08:33:55;12.67;;;5.50;;
417;SDS011;49;48.530;9.200;2024-01-06T08:36:22;11.60;;;6.43;;
417;SDS011;49;48.530;9.200;2024-01-06T08:38:49;14.97;;;6.00;;
417;SDS011;49;48.530;9.200;2024-01-06T08:41:18;10.00;;;4.90;;
417;SDS011;49;48.530;9.200;2024-01-06T08:43:45;11.27;;;5.47;;
417;SDS011;49;48.530;9.200;2024-01-06T08:46:12;13.83;;;5.60;;
417;SDS011;49;48.530;9.200;2024-01-06T08:48:39;13.13;;;5.67;;
417;SDS011;49;48.530;9.200;2024-01-06T08:51:06;12.13;;;7.30;;
417;SDS011;49;48.530;9.200;2024-01-06T08:53:33;14.50;;;6.93;;
417;SDS011;49;48.530;9.200;2024-01-06T08:55:59;11.10;;;5.47;;
417;SDS011;49;48.530;9.200;2024-01-06T08:58:28;16.07;;;5.77;;
417;SDS011;49;48.530;9.200;2024-01-06T09:00:55;16.83;;;5.70;;
417;SDS011;49;48.530;9.200;2024-01-06T09:03:21;15.23;;;5.60;;
417;SDS011;49;48.530;9.200;2024-01-06T09:05:51;13.03;;;5.47;;
417;SDS011;49;48.530;9.200;2024-01-06T09:08:18;10.93;;;5.23;;
417;SDS011;49;48.530;9.200;2024-01-06T09:10:45;13.33;;;5.60;;
417;SDS011;49;48.530;9.200;2024-01-06T09:13:12;9.90;;;4.93;;
417;SDS011;49;48.530;9.200;2024-01-06T09:15:41;13.70;;;5.70;;
417;SDS011;49;48.530;9.200;2024-01-06T09:18:08;11.13;;;5.23;;
417;SDS011;49;48.530;9.200;2024-01-06T09:20:35;13.73;;;5.93;;
417;SDS011;49;48.530;9.200;2024-01-06T09:23:03;15.43;;;7.30;;
417;SDS011;49;48.530;9.200;2024-01-06T09:25:30;18.00;;;10.20;;
417;SDS011;49;48.530;9.200;2024-01-06T09:27:57;59.73;;;22.83;;
417;SDS011;49;48.530;9.200;2024-01-06T09:30:24;9.20;;;5.20;;
417;SDS011;49;48.530;9.200;2024-01-06T09:32:54;9.13;;;5.20;;
417;SDS011;49;48.530;9.200;2024-01-06T09:35:20;9.67;;;6.07;;
417;SDS011;49;48.530;9.200;2024-01-06T09:37:48;11.20;;;6.70;;
417;SDS011;49;48.530;9.200;2024-01-06T09:40:16;12.57;;;7.07;;
417;SDS011;49;48.530;9.200;2024-01-06T09:42:48;14.53;;;5.87;;
417;SDS011;49;48.530;9.200;2024-01-06T09:45:15;8.07;;;5.83;;
417;SDS011;49;48.530;9.200;2024-01-06T09:47:42;8.97;;;4.90;;
417;SDS011;49;48.530;9.200;2024-01-06T09:50:16;13.30;;;5.03;;
417;SDS011;49;48.530;9.200;2024-01-06T09:52:45;12.07;;;5.47;;
417;SDS011;49;48.530;9.200;2024-01-06T09:55:18;7.20;;;4.13;;
417;SDS011;49;48.530;9.200;2024-01-06T09:57:51;9.33;;;4.30;;
417;SDS011;49;48.530;9.200;2024-01-06T10:00:19;9.63;;;4.60;;
417;SDS011;49;48.530;9.200;2024-01-06T10:02:46;7.20;;;4.47;;
417;SDS011;49;48.530;9.200;2024-01-06T10:05:14;10.80;;;6.27;;
417;SDS011;49;48.530;9.200;2024-01-06T10:07:43;15.83;;;5.40;;
417;SDS011;49;48.530;9.200;2024-01-06T10:10:11;13.00;;;5.00;;
417;SDS011;49;48.530;9.200;2024-01-06T10:12:38;8.70;;;4.30;;
417;SDS011;49;48.530;9.200;2024-01-06T10:15:06;13.67;;;5.40;;
417;SDS011;49;48.530;9.200;2024-01-06T10:17:36;9.50;;;5.13;;
417;SDS011;49;48.530;9.200;2024-01-06T10:20:06;7.33;;;4.00;;
417;SDS011;49;48.530;9.200;2024-01-06T10:22:36;13.23;;;5.73;;
417;SDS011;49;48.530;9.200;2024-01-06T10:25:04;11.87;;;5.67;;
417;SDS011;49;48.530;9.200;2024-01-06T10:27:34;11.37;;;4.80;;
417;SDS011;49;48.530;9.200;2024-01-06T10:30:01;9.33;;;5.10;;
417;SDS011;49;48.530;9.200;2024-01-06T10:32:30;8.93;;;4.67;;
417;SDS011;49;48.530;9.200;2024-01-06T10:34:58;10.53;;;5.80;;
417;SDS011;49;48.530;9.200;2024-01-06T10:37:28;6.97;;;5.17;;
417;SDS011;49;48.530;9.200;2024-01-06T10:42:51;7.97;;;4.30;;
417;SDS011;49;48.530;9.200;2024-01-06T10:45:19;8.50;;;5.60;;
417;SDS011;49;48.530;9.200;2024-01-06T10:47:46;11.50;;;4.77;;
417;SDS011;49;48.530;9.200;2024-01-06T10:50:15;7.97;;;4.60;;
417;SDS011;49;48.530;9.200;2024-01-06T10:52:43;7.93;;;5.00;;
417;SDS011;49;48.530;9.200;2024-01-06T10:55:12;10.97;;;5.90;;
417;SDS011;49;48.530;9.200;2024-01-06T10:57:44;11.77;;;6.20;;
417;SDS011;49;48.530;9.200;2024-01-06T11:00:12;6.20;;;4.63;;
417;SDS011;49;48.530;9.200;2024-01-06T11:02:39;8.53;;;4.90;;
417;SDS011;49;48.530;9.200;2024-01-06T11:05:07;6.10;;;4.40;;
417;SDS011;49;48.530;9.200;2024-01-06T11:07:35;5.93;;;3.70;;
417;SDS011;49;48.530;9.200;2024-01-06T11:10:05;5.57;;;3.63;;
417;SDS011;49;48.530;9.200;2024-01-06T11:12:36;6.53;;;3.57;;
417;SDS011;49;48.530;9.200;2024-01-06T11:15:05;7.40;;;3.90;;
417;SDS011;49;48.530;9.200;2024-01-06T11:17:50;9.63;;;4.20;;
417;SDS011;49;48.530;9.200;2024-01-06T11:20:23;5.47;;;3.63;;
417;SDS011;49;48.530;9.200;2024-01-06T11:22:51;12.33;;;6.20;;
417;SDS011;49;48.530;9.200;2024-01-06T11:25:20;12.17;;;6.57;;
417;SDS011;49;48.530;9.200;2024-01-06T11:27:48;7.10;;;4.43;;
417;SDS011;49;48.530;9.200;2024-01-06T11:30:24;7.43;;;5.57;;
417;SDS011;49;48.530;9.200;2024-01-06T11:32:55;19.33;;;7.40;;
417;SDS011;49;48.530;9.200;2024-01-06T11:35:24;8.70;;;4.33;;
417;SDS011;49;48.530;9.200;2024-01-06T11:37:53;23.10;;;9.30;;
417;SDS011;49;48.530;9.200;2024-01-06T11:40:24;20.43;;;7.67;;
417;SDS011;49;48.530;9.200;2024-01-06T11:42:57;52.27;;;17.97;;
417;SDS011;49;48.530;9.200;2024-01-06T11:45:26;51.87;;;20.30;;
417;SDS011;49;48.530;9.200;2024-01-06T11:47:54;52.60;;;17.40;;
417;SDS011;49;48.530;9.200;2024-01-06T11:50:23;13.53;;;6.57;;
417;SDS011;49;48.530;9.200;2024-01-06T11:52:51;35.47;;;13.23;;
417;SDS011;49;48.530;9.200;2024-01-06T11:55:19;29.97;;;11.20;;
417;SDS011;49;48.530;9.200;2024-01-06T11:57:46;8.40;;;4.43;;
417;SDS011;49;48.530;9.200;2024-01-06T12:00:14;84.90;;;22.40;;
417;SDS011;49;48.530;9.200;2024-01-06T12:02:43;104.00;;;27.37;;
417;SDS011;49;48.530;9.200;2024-01-06T12:05:14;55.13;;;15.00;;
417;SDS011;49;48.530;9.200;2024-01-06T12:07:43;47.77;;;13.13;;
417;SDS011;49;48.530;9.200;2024-01-06T12:10:19;51.37;;;12.30;;
417;SDS011;49;48.530;9.200;2024-01-06T12:12:54;69.80;;;17.67;;
417;SDS011;49;48.530;9.200;2024-01-06T12:15:23;42.93;;;13.10;;
417;SDS011;49;48.530;9.200;2024-01-06T12:17:51;10.03;;;5.00;;
417;SDS011;49;48.530;9.200;2024-01-06T12:20:18;35.50;;;11.40;;
417;SDS011;49;48.530;9.200;2024-01-06T12:22:45;38.57;;;12.40;;
417;SDS011;49;48.530;9.200;2024-01-06T12:25:14;21.00;;;7.03;;
417;SDS011;49;48.530;9.200;2024-01-06T12:27:42;11.00;;;5.17;;
417;SDS011;49;48.530;9.200;2024-01-06T12:30:13;20.57;;;5.80;;
417;SDS011;49;48.530;9.200;2024-01-06T12:32:44;43.37;;;14.83;;
417;SDS011;49;48.530;9.200;2024-01-06T12:35:14;30.70;;;12.17;;
417;SDS011;49;48.530;9.200;2024-01-06T12:37:41;10.93;;;5.30;;
417;SDS011;49;48.530;9.200;2024-01-06T12:40:10;9.80;;;4.00;;
417;SDS011;49;48.530;9.200;2024-01-06T12:42:38;33.33;;;16.37;;
417;SDS011;49;48.530;9.200;2024-01-06T12:45:06;17.17;;;8.43;;
417;SDS011;49;48.530;9.200;2024-01-06T12:47:33;6.80;;;4.57;;
417;SDS011;49;48.530;9.200;2024-01-06T12:50:01;9.40;;;4.83;;
417;SDS011;49;48.530;9.200;2024-01-06T12:52:30;6.50;;;4.10;;
417;SDS011;49;48.530;9.200;2024-01-06T12:54:58;8.27;;;4.90;;
417;SDS011;49;48.530;9.200;2024-01-06T12:57:28;6.03;;;3.70;;
417;SDS011;49;48.530;9.200;2024-01-06T12:59:55;3.73;;;2.80;;
417;SDS011;49;48.530;9.200;2024-01-06T13:02:22;3.77;;;2.63;;
417;SDS011;49;48.530;9.200;2024-01-06T13:04:48;4.63;;;3.20;;
417;SDS011;49;48.530;9.200;2024-01-06T13:07:15;4.33;;;3.00;;
417;SDS011;49;48.530;9.200;2024-01-06T13:09:44;11.03;;;2.80;;
417;SDS011;49;48.530;9.200;2024-01-06T13:12:11;3.50;;;2.80;;
417;SDS011;49;48.530;9.200;2024-01-06T13:14:38;3.70;;;2.90;;
417;SDS011;49;48.530;9.200;2024-01-06T13:17:05;8.33;;;3.87;;
417;SDS011;49;48.530;9.200;2024-01-06T13:19:34;4.10;;;2.80;;
417;SDS011;49;48.530;9.200;2024-01-06T13:22:00;4.20;;;2.77;;
417;SDS011;49;48.530;9.200;2024-01-06T13:24:27;3.13;;;2.50;;
417;SDS011;49;48.530;9.200;2024-01-06T13:26:56;4.40;;;3.57;;
417;SDS011;49;48.530;9.200;2024-01-06T13:29:23;9.03;;;3.40;;
417;SDS011;49;48.530;9.200;2024-01-06T13:31:50;3.37;;;2.80;;
417;SDS011;49;48.530;9.200;2024-01-06T13:34:18;3.10;;;2.70;;
417;SDS011;49;48.530;9.200;2024-01-06T13:36:45;26.10;;;12.17;;
417;SDS011;49;48.530;9.200;2024-01-06T13:39:12;40.70;;;18.40;;
417;SDS011;49;48.530;9.200;2024-01-06T13:41:45;35.60;;;16.80;;
417;SDS011;49;48.530;9.200;2024-01-06T13:44:14;27.30;;;13.90;;
417;SDS011;49;48.530;9.200;2024-01-06T13:46:41;26.73;;;13.27;;
417;SDS011;49;48.530;9.200;2024-01-06T13:49:09;7.47;;;4.40;;
417;SDS011;49;48.530;9.200;2024-01-06T13:51:36;5.87;;;3.67;;
417;SDS011;49;48.530;9.200;2024-01-06T13:54:03;8.50;;;4.93;;
417;SDS011;49;48.530;9.200;2024-01-06T13:56:30;10.97;;;5.77;;
417;SDS011;49;48.530;9.200;2024-01-06T13:58:58;5.80;;;3.60;;
417;SDS011;49;48.530;9.200;2024-01-06T14:01:26;5.60;;;3.90;;
417;SDS011;49;48.530;9.200;2024-01-06T14:03:53;8.70;;;5.50;;
417;SDS011;49;48.530;9.200;2024-01-06T14:06:22;8.30;;;3.93;;
417;SDS011;49;48.530;9.200;2024-01-06T14:08:50;5.70;;;2.97;;
417;SDS011;49;48.530;9.200;2024-01-06T14:11:17;4.17;;;3.20;;
417;SDS011;49;48.530;9.200;2024-01-06T14:13:44;6.20;;;3.10;;
417;SDS011;49;48.530;9.200;2024-01-06T14:16:13;4.50;;;2.90;;
417;SDS011;49;48.530;9.200;2024-01-06T14:18:42;4.73;;;2.60;;
417;SDS011;49;48.530;9.200;2024-01-06T14:21:08;3.83;;;2.90;;
417;SDS011;49;48.530;9.200;2024-01-06T14:23:36;4.17;;;2.60;;
417;SDS011;49;48.530;9.200;2024-01-06T14:26:03;2.90;;;2.50;;
417;SDS011;49;48.530;9.200;2024-01-06T14:28:31;4.57;;;2.73;;
417;SDS011;49;48.530;9.200;2024-01-06T14:30:57;3.27;;;2.80;;
417;SDS011;49;48.530;9.200;2024-01-06T14:33:24;3.37;;;2.90;;
417;SDS011;49;48.530;9.200;2024-01-06T14:35:53;3.57;;;2.80;;
417;SDS011;49;48.530;9.200;2024-01-06T14:38:20;3.93;;;3.13;;
417;SDS011;49;48.530;9.200;2024-01-06T14:40:47;4.90;;;2.60;;
417;SDS011;49;48.530;9.200;2024-01-06T14:43:14;3.03;;;2.50;;
417;SDS011;49;48.530;9.200;2024-01-06T14:45:41;3.43;;;2.77;;
417;SDS011;49;48.530;9.200;2024-01-06T14:48:08;4.07;;;3.03;;
417;SDS011;49;48.530;9.200;2024-01-06T14:50:35;3.83;;;2.90;;
417;SDS011;49;48.530;9.200;2024-01-06T14:53:03;4.63;;;3.03;;
417;SDS011;49;48.530;9.200;2024-01-06T14:55:31;5.73;;;3.83;;
417;SDS011;49;48.530;9.200;2024-01-06T14:57:58;6.87;;;4.30;;
417;SDS011;49;48.530;9.200;2024-01-06T15:00:25;7.23;;;4.77;;
417;SDS011;49;48.530;9.200;2024-01-06T15:02:52;10.23;;;6.90;;
417;SDS011;49;48.530;9.200;2024-01-06T15:05:19;5.00;;;3.87;;
417;SDS011;49;48.530;9.200;2024-01-06T15:07:46;4.90;;;3.53;;
417;SDS011;49;48.530;9.200;2024-01-06T15:10:14;11.63;;;3.93;;
417;SDS011;49;48.530;9.200;2024-01-06T15:12:41;4.87;;;3.37;;
417;SDS011;49;48.530;9.200;2024-01-06T15:15:08;5.23;;;4.10;;
417;SDS011;49;48.530;9.200;2024-01-06T15:17:35;4.27;;;3.53;;
417;SDS011;49;48.530;9.200;2024-01-06T15:20:02;5.83;;;4.03;;
417;SDS011;49;48.530;9.200;2024-01-06T15:22:30;5.87;;;3.70;;
417;SDS011;49;48.530;9.200;2024-01-06T15:24:57;4.73;;;3.57;;
417;SDS011;49;48.530;9.200;2024-01-06T15:27:26;8.40;;;4.97;;
417;SDS011;49;48.530;9.200;2024-01-06T15:29:53;7.73;;;4.10;;
417;SDS011;49;48.530;9.200;2024-01-06T15:32:20;15.33;;;9.07;;
417;SDS011;49;48.530;9.200;2024-01-06T15:34:47;10.53;;;6.90;;
417;SDS011;49;48.530;9.200;2024-01-06T15:37:14;14.30;;;9.20;;
417;SDS011;49;48.530;9.200;2024-01-06T15:39:41;11.97;;;8.17;;
417;SDS011;49;48.530;9.200;2024-01-06T15:42:07;9.10;;;6.43;;
417;SDS011;49;48.530;9.200;2024-01-06T15:44:36;22.57;;;5.40;;
417;SDS011;49;48.530;9.200;2024-01-06T15:47:04;11.30;;;6.47;;
417;SDS011;49;48.530;9.200;2024-01-06T15:49:31;6.73;;;4.80;;
417;SDS011;49;48.530;9.200;2024-01-06T15:51:58;5.67;;;3.60;;
417;SDS011;49;48.530;9.200;2024-01-06T15:54:25;5.83;;;4.10;;